Flight Track Log - Related Links

Times and Time Zones

All times are in EDT time to prevent confusion due to time zone crossing. See the EGF4463 flight status page for this flight to view local times or setup timezone preferences in your user account.

Time Position Orientation Groundspeed Altitude Reporting Facility
EDT Latitude Longitude Course Direction KTS MPH feet Rate Location/Type
Fri 10:03:52 PM 40.7940 -73.6780 195° South  Level FlightAware Approximate
Fri 10:04:05 PM 40.6333 -73.7333 34° Northeast 168 193 2,400  Level New York TRACON
Fri 10:08:33 PM 40.8717 -73.5242 14° North 262 302 11,400 1,902 Climbing Boston Center
Fri 10:09:33 PM 40.9617 -73.4956 16° North 296 341 12,800 1,550 Climbing Boston Center
Fri 10:10:33 PM 41.0517 -73.4611 14° North 330 380 14,500 1,500 Climbing Boston Center
Fri 10:11:33 PM 41.1372 -73.4322 14° North 341 392 15,800 1,450 Climbing Boston Center
Fri 10:12:33 PM 41.2417 -73.3981 16° North 346 398 17,400 1,350 Climbing Boston Center
Fri 10:13:33 PM 41.3275 -73.3661 13° North 346 398 18,500 1,250 Climbing Boston Center
Fri 10:14:33 PM 41.4383 -73.3317 31° Northeast 351 404 19,900 1,450 Climbing Boston Center
Fri 10:15:33 PM 41.5242 -73.2636 48° Northeast 357 411 21,400 1,450 Climbing Boston Center
Fri 10:16:33 PM 41.5917 -73.1644 25° Northeast 350 403 22,800 1,450 Climbing Boston Center
Fri 10:17:33 PM 41.6794 -73.1100 351° North 346 398 24,300 1,500 Climbing Boston Center
Fri 10:18:33 PM 41.7814 -73.1306 352° North 339 390 25,800 1,300 Climbing Boston Center
Fri 10:19:33 PM 41.8814 -73.1483 352° North 345 397 26,900 600 Climbing Boston Center
Fri 10:20:33 PM 41.9875 -73.1692 353° North 364 419 27,000 50 Climbing Boston Center
Fri 10:21:33 PM 42.0936 -73.1869 352° North 378 435 27,000  Level Boston Center
Fri 10:22:33 PM 42.2061 -73.2081 352° North 391 450 27,000  Level Boston Center
Fri 10:23:33 PM 42.3183 -73.2292 354° North 396 456 27,000  Level Boston Center
Fri 10:24:33 PM 42.4331 -73.2447 355° North 407 468 27,000  Level Boston Center
Fri 10:25:33 PM 42.5475 -73.2572 349° North 407 468 27,000  Level Boston Center
Fri 10:26:33 PM 42.6619 -73.2872 352° North 407 468 27,000  Level Boston Center
Fri 10:27:33 PM 42.7536 -73.3053 353° North 412 474 27,000  Level Boston Center
Fri 10:28:33 PM 42.8783 -73.3269 352° North 412 474 27,000  Level Boston Center
Fri 10:29:33 PM 42.9950 -73.3486 356° North 412 474 27,000  Level Boston Center
Fri 10:30:33 PM 43.1094 -73.3586 355° North 412 474 27,000  Level Boston Center
Fri 10:31:33 PM 43.2239 -73.3719 355° North 407 468 27,000  Level Boston Center
Fri 10:32:33 PM 43.3386 -73.3850 357° North 407 468 27,000  Level Boston Center
Fri 10:33:33 PM 43.4572 -73.3925 354° North 407 468 27,000  Level Boston Center
Fri 10:34:33 PM 43.5717 -73.4086 357° North 407 468 27,000  Level Boston Center
Fri 10:35:33 PM 43.7028 -73.4194 356° North 412 474 27,000  Level Boston Center
Fri 10:36:33 PM 43.8194 -73.4300 355° North 424 488 27,000  Level Boston Center
Fri 10:37:33 PM 43.9381 -73.4433 356° North 424 488 27,000  Level Boston Center
Fri 10:38:33 PM 44.0444 -73.4539 355° North 424 488 27,000 -400 Level Boston Center
Fri 10:39:33 PM 44.1631 -73.4675 356° North 424 488 26,200 -1,650 Descending Boston Center
Fri 10:40:33 PM 44.2836 -73.4783 355° North 429 494 23,700 -2,500 Descending Boston Center
Fri 10:41:33 PM 44.3961 -73.4917 354° North 416 479 21,200 -2,500 Descending Boston Center
Fri 10:42:33 PM 44.5167 -73.5086 357° North 405 466 18,700 -2,350 Descending Boston Center
Fri 10:43:33 PM 44.6272 -73.5164 353° North 400 460 16,500 -2,350 Descending Boston Center
Fri 10:44:33 PM 44.7333 -73.5358 336° Northwest 395 455 14,000 -2,250 Descending Boston Center
Fri 10:45:33 PM 44.8264 -73.5931 336° Northwest 367 422 12,000 -1,440 Descending Boston Center
Fri 10:46:38 PM 44.9167 -73.6500 325° Northwest 350 403 11,000 -480 Descending Montreal Center
Fri 10:47:38 PM 44.9833 -73.7167 337° Northwest 340 391 11,000 -350 Level Montreal Center
Fri 10:48:38 PM 45.0667 -73.7667 325° Northwest 330 380 10,300 -1,450 Descending Montreal Center
Fri 10:49:38 PM 45.1333 -73.8333 332° Northwest 290 334 8,100 -2,250 Descending Montreal Center
Fri 10:50:38 PM 45.2000 -73.8833 341° North 270 311 5,800 -2,000 Descending Montreal Center
Fri 10:51:38 PM 45.2667 -73.9167 13° North 260 299 4,100 -1,450 Descending Montreal Center
Fri 10:52:38 PM 45.3167 -73.9000 35° Northeast 230 265 2,900 -950 Descending Montreal Center
Fri 10:53:38 PM 45.3667 -73.8500 46° Northeast 190 219 2,200 -750 Descending Montreal Center
Fri 10:54:38 PM 45.4000 -73.8000 55° Northeast 170 196 1,400 -750 Descending Montreal Center
Fri 10:55:38 PM 45.4167 -73.7667 46° Northeast 130 150 700 -650 Descending Montreal Center
Fri 10:56:38 PM 45.4500 -73.7167 360° North 120 138 100 -300 Descending Montreal Center
Fri 10:57:38 PM 45.4500 -73.7167 360° North 40 46 100  Level Montreal Center

Login

Don't have an account? Register now (free) for customized features, flight alerts, and more!